Albion, Rhode Island
Current Conditions -  °F | °C
As of 9:35 AM on Friday 28 Nov 2014 (Local Time) from KSFZ Reporting Station
Broken Clouds Broken Clouds  
Wind Chill: 20°   Ceiling: 7500
Heat Index: 30°   Visibility: 10mi
Dew Point: 18°   Wind: 13mph
Humidity: 60%   Direction: 320°NW
Pressure: 30.04"   Gusts: 21mph
Location:  41.95°N, 71.45°W
Report Text: KSFZ 281435Z 32011G18KT 10SM BKN075 M01/M08 A3004 RMK AO1
Loading
Personal Weather Stations






























Interactive Weather Map New forecast layout! Learn more

10-Day Weather Forecast

Advertisements
Track Severe Weather on mobile